Time;durP1;ratioP1;P1;durP2;ratioP2;P2;SDS_P1;SDS_P2;PMS_P1;PMS_P2;Temp;Humidity;BMP_temperature;BMP_pressure;BME280_temperature;BME280_humidity;BME280_pressure;Samples;Min_cycle;Max_cycle;Signal;HPM_P1;HPM_P2
2021/11/25 00:00:59;;;;;;;2.50;1.55;;;;;;;;;;5073855;28;20013;-89
2021/11/25 00:03:24;;;;;;;0.45;0.45;;;;;;;;;;5072892;28;20064;-89
2021/11/25 00:05:50;;;;;;;5.53;1.50;;;;;;;;;;5073559;28;20025;-89
2021/11/25 00:08:17;;;;;;;1.23;1.15;;;;;;;;;;5072950;28;20121;-89
2021/11/25 00:10:43;;;;;;;1.02;1.02;;;;;;;;;;5073459;28;20021;-89
2021/11/25 00:13:08;;;;;;;1.50;0.90;;;;;;;;;;5073618;28;20036;-89
2021/11/25 00:15:34;;;;;;;1.00;0.98;;;;;;;;;;5072809;28;20071;-89
2021/11/25 00:17:59;;;;;;;0.20;0.20;;;;;;;;;;5073375;28;20095;-89
2021/11/25 00:20:24;;;;;;;0.20;0.20;;;;;;;;;;5073497;28;20042;-89
2021/11/25 00:22:50;;;;;;;0.20;0.20;;;;;;;;;;5073646;28;20480;-89
2021/11/25 00:25:15;;;;;;;0.57;0.57;;;;;;;;;;5073195;28;20044;-89
2021/11/25 00:27:41;;;;;;;1.60;1.50;;;;;;;;;;5073527;28;20063;-89
2021/11/25 00:30:07;;;;;;;1.52;1.42;;;;;;;;;;5073493;28;20012;-89
2021/11/25 00:32:32;;;;;;;0.43;0.43;;;;;;;;;;5073422;28;20028;-91
2021/11/25 00:34:57;;;;;;;0.10;0.10;;;;;;;;;;5073315;28;20121;-90
2021/11/25 00:37:23;;;;;;;0.30;0.30;;;;;;;;;;5073519;28;20361;-89
2021/11/25 00:39:48;;;;;;;0.35;0.32;;;;;;;;;;5073050;28;20150;-89
2021/11/25 00:42:13;;;;;;;1.20;1.08;;;;;;;;;;5073345;28;20028;-88
2021/11/25 00:44:39;;;;;;;0.10;0.10;;;;;;;;;;5073013;28;20575;-89
2021/11/25 00:47:04;;;;;;;0.10;0.10;;;;;;;;;;5073265;28;20027;-89
2021/11/25 00:49:29;;;;;;;0.10;0.10;;;;;;;;;;5073507;28;20052;-90
2021/11/25 00:51:55;;;;;;;0.30;0.30;;;;;;;;;;5073201;28;20456;-89
2021/11/25 00:54:20;;;;;;;0.55;0.55;;;;;;;;;;5072896;28;20048;-89
2021/11/25 00:56:45;;;;;;;0.10;0.10;;;;;;;;;;5073030;28;20032;-87
2021/11/25 00:59:11;;;;;;;0.10;0.10;;;;;;;;;;5073122;28;20017;-87
2021/11/25 01:01:36;;;;;;;0.73;0.73;;;;;;;;;;5073308;28;20063;-89
2021/11/25 01:04:02;;;;;;;0.20;0.20;;;;;;;;;;5072948;28;20044;-90
2021/11/25 01:06:28;;;;;;;0.20;0.20;;;;;;;;;;5072829;28;20074;-89
2021/11/25 01:08:53;;;;;;;0.30;0.30;;;;;;;;;;5072924;28;20052;-89
2021/11/25 01:11:21;;;;;;;0.20;0.20;;;;;;;;;;5072505;28;20052;-88
2021/11/25 01:13:47;;;;;;;0.10;0.10;;;;;;;;;;5060094;28;20050;-88
2021/11/25 01:16:12;;;;;;;0.15;0.15;;;;;;;;;;5072481;28;20024;-88
2021/11/25 01:18:37;;;;;;;0.10;0.10;;;;;;;;;;5072697;28;20033;-88
2021/11/25 01:21:03;;;;;;;0.10;0.10;;;;;;;;;;5071823;28;20043;-88
2021/11/25 01:23:29;;;;;;;0.45;0.45;;;;;;;;;;5071332;28;20029;-86
2021/11/25 01:25:55;;;;;;;0.20;0.20;;;;;;;;;;5072291;28;20052;-88
2021/11/25 01:28:21;;;;;;;0.10;0.10;;;;;;;;;;5070139;28;20021;-88
2021/11/25 01:30:48;;;;;;;0.10;0.10;;;;;;;;;;5071655;28;20029;-87
2021/11/25 01:33:14;;;;;;;0.47;0.47;;;;;;;;;;5072777;28;20119;-89
2021/11/25 01:35:40;;;;;;;0.32;0.32;;;;;;;;;;5072605;28;20108;-90
2021/11/25 01:38:08;;;;;;;0.28;0.28;;;;;;;;;;5071988;28;20052;-88
2021/11/25 01:40:34;;;;;;;0.10;0.10;;;;;;;;;;5072374;28;20085;-88
2021/11/25 01:43:00;;;;;;;0.10;0.10;;;;;;;;;;5072750;28;20044;-89
2021/11/25 01:45:26;;;;;;;0.10;0.10;;;;;;;;;;5072489;28;20056;-89
2021/11/25 01:47:52;;;;;;;0.52;0.52;;;;;;;;;;5072263;28;20479;-89
2021/11/25 01:50:18;;;;;;;0.10;0.10;;;;;;;;;;5072663;28;20096;-86
2021/11/25 01:52:44;;;;;;;0.10;0.10;;;;;;;;;;5075073;28;20507;-88
2021/11/25 01:55:10;;;;;;;0.10;0.10;;;;;;;;;;5075833;28;20048;-88
2021/11/25 01:57:35;;;;;;;0.10;0.10;;;;;;;;;;5075767;28;20031;-88
2021/11/25 02:00:02;;;;;;;0.10;0.10;;;;;;;;;;5075867;28;20025;-89
2021/11/25 02:02:27;;;;;;;0.30;0.30;;;;;;;;;;5075688;28;20037;-88
2021/11/25 02:04:53;;;;;;;0.10;0.10;;;;;;;;;;5074492;28;20372;-88
2021/11/25 02:07:18;;;;;;;0.00;0.00;;;;;;;;;;5075873;28;20040;-87
2021/11/25 02:09:43;;;;;;;2.05;1.90;;;;;;;;;;5075727;28;20491;-89
2021/11/25 02:12:09;;;;;;;0.10;0.10;;;;;;;;;;5075425;28;20027;-87
2021/11/25 02:14:34;;;;;;;0.60;0.60;;;;;;;;;;5075369;28;20043;-88
2021/11/25 02:17:00;;;;;;;0.40;0.40;;;;;;;;;;5075587;28;20111;-88
2021/11/25 02:19:26;;;;;;;0.05;0.05;;;;;;;;;;5075269;28;20525;-86
2021/11/25 02:21:51;;;;;;;0.17;0.17;;;;;;;;;;5068086;28;20031;-87
2021/11/25 02:24:16;;;;;;;0.00;0.00;;;;;;;;;;5075466;28;20463;-88
2021/11/25 02:26:42;;;;;;;1.17;1.08;;;;;;;;;;5074905;28;20026;-88
2021/11/25 02:29:07;;;;;;;0.30;0.30;;;;;;;;;;5075338;28;20025;-88
2021/11/25 02:31:32;;;;;;;0.57;0.57;;;;;;;;;;5074736;28;20024;-87
2021/11/25 02:33:58;;;;;;;1.65;0.90;;;;;;;;;;5075205;28;20032;-88
2021/11/25 02:36:24;;;;;;;0.10;0.10;;;;;;;;;;5074909;28;20036;-88
2021/11/25 02:38:50;;;;;;;0.30;0.30;;;;;;;;;;5075455;28;20033;-88
2021/11/25 02:41:15;;;;;;;0.10;0.10;;;;;;;;;;5075077;28;20047;-88
2021/11/25 02:43:41;;;;;;;7.53;2.70;;;;;;;;;;5074508;28;20028;-86
2021/11/25 02:46:11;;;;;;;0.10;0.10;;;;;;;;;;5074664;28;20388;-89
2021/11/25 02:48:47;;;;;;;0.10;0.10;;;;;;;;;;5075011;28;20095;-88
2021/11/25 02:51:14;;;;;;;0.10;0.10;;;;;;;;;;5074630;28;20029;-88
2021/11/25 02:53:39;;;;;;;0.10;0.10;;;;;;;;;;5073535;28;20051;-89
2021/11/25 02:56:07;;;;;;;0.10;0.10;;;;;;;;;;5074778;28;20448;-89
2021/11/25 02:58:33;;;;;;;0.10;0.10;;;;;;;;;;5074979;28;20428;-89
2021/11/25 03:01:00;;;;;;;1.67;1.20;;;;;;;;;;5074385;28;20032;-88
2021/11/25 03:03:25;;;;;;;0.10;0.10;;;;;;;;;;5074659;28;20027;-86
2021/11/25 03:05:51;;;;;;;0.60;0.60;;;;;;;;;;5074478;28;20099;-89
2021/11/25 03:08:17;;;;;;;0.88;0.75;;;;;;;;;;5074598;28;20036;-88
2021/11/25 03:10:44;;;;;;;0.10;0.10;;;;;;;;;;5074304;28;20016;-86
2021/11/25 03:13:11;;;;;;;0.17;0.17;;;;;;;;;;5074483;28;20028;-88
2021/11/25 03:15:37;;;;;;;0.10;0.10;;;;;;;;;;5073894;28;20045;-87
2021/11/25 03:18:03;;;;;;;0.10;0.10;;;;;;;;;;5074296;28;20070;-87
2021/11/25 03:20:29;;;;;;;0.10;0.10;;;;;;;;;;5073839;28;20029;-86
2021/11/25 03:22:54;;;;;;;0.30;0.30;;;;;;;;;;5074169;28;20416;-86
2021/11/25 03:25:20;;;;;;;0.10;0.10;;;;;;;;;;5073879;28;20015;-86
2021/11/25 03:27:45;;;;;;;0.10;0.10;;;;;;;;;;5074088;28;20431;-86
2021/11/25 03:30:10;;;;;;;0.10;0.10;;;;;;;;;;5074075;28;20082;-88
2021/11/25 03:32:36;;;;;;;0.10;0.10;;;;;;;;;;5072738;28;20537;-87
2021/11/25 03:35:01;;;;;;;0.10;0.10;;;;;;;;;;5074038;28;20472;-86
2021/11/25 03:37:27;;;;;;;0.10;0.10;;;;;;;;;;5073682;28;20037;-84
2021/11/25 03:39:52;;;;;;;0.10;0.10;;;;;;;;;;5073846;28;20012;-87
2021/11/25 03:42:17;;;;;;;0.10;0.10;;;;;;;;;;5073636;28;20035;-86
2021/11/25 03:44:43;;;;;;;0.10;0.10;;;;;;;;;;5073856;28;20455;-87
2021/11/25 03:47:09;;;;;;;0.10;0.10;;;;;;;;;;5073533;28;20020;-86
2021/11/25 03:49:34;;;;;;;0.13;0.13;;;;;;;;;;5073362;28;20752;-87
2021/11/25 03:51:59;;;;;;;0.10;0.10;;;;;;;;;;5073442;28;20032;-86
2021/11/25 03:54:24;;;;;;;0.10;0.10;;;;;;;;;;5073381;28;20048;-87
2021/11/25 03:56:50;;;;;;;0.10;0.10;;;;;;;;;;5073396;28;20158;-87
2021/11/25 03:59:15;;;;;;;0.10;0.10;;;;;;;;;;5073599;28;20426;-87
2021/11/25 04:01:40;;;;;;;0.10;0.10;;;;;;;;;;5073334;28;20020;-87
2021/11/25 04:04:06;;;;;;;7.13;1.58;;;;;;;;;;5073216;28;20024;-86
2021/11/25 04:06:31;;;;;;;0.40;0.40;;;;;;;;;;5073110;28;20099;-86
2021/11/25 04:08:56;;;;;;;0.10;0.10;;;;;;;;;;5073220;28;20012;-85
2021/11/25 04:11:22;;;;;;;0.10;0.10;;;;;;;;;;5073324;28;20025;-87
2021/11/25 04:13:47;;;;;;;0.10;0.10;;;;;;;;;;5072552;28;20515;-86
2021/11/25 04:16:12;;;;;;;0.10;0.10;;;;;;;;;;5073398;28;20360;-87
2021/11/25 04:18:38;;;;;;;0.10;0.10;;;;;;;;;;5073025;28;20028;-87
2021/11/25 04:21:05;;;;;;;0.10;0.10;;;;;;;;;;5073003;28;20033;-87
2021/11/25 04:23:30;;;;;;;0.10;0.10;;;;;;;;;;5073070;28;20095;-87
2021/11/25 04:25:55;;;;;;;0.10;0.10;;;;;;;;;;5072903;28;20108;-87
2021/11/25 04:28:21;;;;;;;0.40;0.40;;;;;;;;;;5071953;28;20089;-86
2021/11/25 04:35:55;;;;;;;0.10;0.10;;;;;;;;;;5065045;28;20074;-87
2021/11/25 04:38:21;;;;;;;0.10;0.10;;;;;;;;;;5073178;28;20025;-89
2021/11/25 04:40:49;;;;;;;0.10;0.10;;;;;;;;;;5073366;28;20407;-89
2021/11/25 04:43:15;;;;;;;1.45;0.82;;;;;;;;;;5073248;28;20020;-89
2021/11/25 04:45:42;;;;;;;0.10;0.10;;;;;;;;;;5072984;28;20037;-89
2021/11/25 04:48:08;;;;;;;0.10;0.10;;;;;;;;;;5073209;28;20035;-88
2021/11/25 04:50:33;;;;;;;0.10;0.10;;;;;;;;;;5072970;28;20021;-88
2021/11/25 04:52:59;;;;;;;0.15;0.15;;;;;;;;;;5072912;28;20035;-86
2021/11/25 04:55:24;;;;;;;0.10;0.10;;;;;;;;;;5072429;28;20088;-87
2021/11/25 04:57:49;;;;;;;0.10;0.10;;;;;;;;;;5071954;28;20021;-87
2021/11/25 05:00:16;;;;;;;0.10;0.10;;;;;;;;;;5072861;28;20036;-87
2021/11/25 05:02:41;;;;;;;0.10;0.10;;;;;;;;;;5072664;28;20040;-88
2021/11/25 05:05:07;;;;;;;0.10;0.10;;;;;;;;;;5072806;28;20020;-87
2021/11/25 05:07:32;;;;;;;0.10;0.10;;;;;;;;;;5072603;28;20060;-87
2021/11/25 05:09:57;;;;;;;0.10;0.10;;;;;;;;;;5072464;28;20526;-86
2021/11/25 05:12:23;;;;;;;0.85;0.85;;;;;;;;;;5072480;28;20031;-88
2021/11/25 05:14:48;;;;;;;0.10;0.10;;;;;;;;;;5072704;28;20086;-88
2021/11/25 05:17:13;;;;;;;0.10;0.10;;;;;;;;;;5072254;28;20388;-87
2021/11/25 05:19:39;;;;;;;0.20;0.20;;;;;;;;;;5072481;28;20021;-87
2021/11/25 05:22:04;;;;;;;0.10;0.10;;;;;;;;;;5072530;28;20024;-86
2021/11/25 05:24:29;;;;;;;0.10;0.10;;;;;;;;;;5072641;28;20029;-87
2021/11/25 05:26:55;;;;;;;0.10;0.10;;;;;;;;;;5074004;28;20070;-86
2021/11/25 05:29:21;;;;;;;0.10;0.10;;;;;;;;;;5076156;28;20028;-86
2021/11/25 05:31:47;;;;;;;0.10;0.10;;;;;;;;;;5076159;28;20056;-86
2021/11/25 05:34:12;;;;;;;0.10;0.10;;;;;;;;;;5076270;28;20129;-86
2021/11/25 05:36:37;;;;;;;0.30;0.30;;;;;;;;;;5075707;28;20047;-87
2021/11/25 05:39:02;;;;;;;0.10;0.10;;;;;;;;;;5076257;28;20032;-86
2021/11/25 05:41:28;;;;;;;0.10;0.10;;;;;;;;;;5075857;28;20019;-87
2021/11/25 05:43:53;;;;;;;0.15;0.15;;;;;;;;;;5075774;28;20488;-86
2021/11/25 05:46:18;;;;;;;0.10;0.10;;;;;;;;;;5075781;28;20024;-86
2021/11/25 05:48:44;;;;;;;0.10;0.10;;;;;;;;;;5075927;28;20016;-87
2021/11/25 05:51:09;;;;;;;0.10;0.10;;;;;;;;;;5075956;28;20111;-86
2021/11/25 05:53:34;;;;;;;0.40;0.40;;;;;;;;;;5075524;28;20070;-86
2021/11/25 05:56:00;;;;;;;0.10;0.10;;;;;;;;;;5075787;28;20494;-86
2021/11/25 05:58:25;;;;;;;0.10;0.10;;;;;;;;;;5075868;28;20036;-86
2021/11/25 06:00:50;;;;;;;0.10;0.10;;;;;;;;;;5075674;28;20062;-88
2021/11/25 06:03:16;;;;;;;0.10;0.10;;;;;;;;;;5075338;28;20012;-87
2021/11/25 06:05:42;;;;;;;0.10;0.10;;;;;;;;;;5075478;28;20025;-87
2021/11/25 06:08:07;;;;;;;0.10;0.10;;;;;;;;;;5075449;28;20365;-87
2021/11/25 06:10:32;;;;;;;0.10;0.10;;;;;;;;;;5075638;28;20509;-85
2021/11/25 06:12:58;;;;;;;0.10;0.10;;;;;;;;;;5075102;28;20024;-86
2021/11/25 06:15:24;;;;;;;0.20;0.20;;;;;;;;;;5075502;28;20040;-87
2021/11/25 06:17:50;;;;;;;0.10;0.10;;;;;;;;;;5075348;28;20016;-86
2021/11/25 06:20:16;;;;;;;0.10;0.10;;;;;;;;;;5075548;28;20025;-86
2021/11/25 06:22:42;;;;;;;0.10;0.10;;;;;;;;;;5075287;28;20048;-87
2021/11/25 06:25:08;;;;;;;0.10;0.10;;;;;;;;;;5075301;28;20021;-87
2021/11/25 06:27:34;;;;;;;0.10;0.10;;;;;;;;;;5075411;28;20029;-86
2021/11/25 06:29:59;;;;;;;0.17;0.17;;;;;;;;;;5075148;28;20078;-87
2021/11/25 06:32:25;;;;;;;0.10;0.10;;;;;;;;;;5073955;28;20020;-87
2021/11/25 06:34:50;;;;;;;0.10;0.10;;;;;;;;;;5074900;28;20132;-86
2021/11/25 06:37:15;;;;;;;0.10;0.10;;;;;;;;;;5074712;28;20119;-86
2021/11/25 06:39:41;;;;;;;0.10;0.10;;;;;;;;;;5074992;28;20035;-87
2021/11/25 06:42:06;;;;;;;0.10;0.10;;;;;;;;;;5075049;28;20062;-87
2021/11/25 06:44:31;;;;;;;0.10;0.10;;;;;;;;;;5074880;28;20036;-86
2021/11/25 06:46:57;;;;;;;0.10;0.10;;;;;;;;;;5074633;28;20087;-85
2021/11/25 06:49:22;;;;;;;0.10;0.10;;;;;;;;;;5074920;28;20036;-85
2021/11/25 06:51:47;;;;;;;0.57;0.57;;;;;;;;;;5074667;28;20036;-85
2021/11/25 06:54:13;;;;;;;0.10;0.10;;;;;;;;;;5074653;28;20095;-85
2021/11/25 06:56:38;;;;;;;0.10;0.10;;;;;;;;;;5074677;28;20029;-85
2021/11/25 06:59:05;;;;;;;0.75;0.75;;;;;;;;;;5074349;28;20040;-85
2021/11/25 07:01:31;;;;;;;0.10;0.10;;;;;;;;;;5074124;28;20547;-85
2021/11/25 07:03:56;;;;;;;0.10;0.10;;;;;;;;;;5074924;28;20032;-85
2021/11/25 07:06:21;;;;;;;0.10;0.10;;;;;;;;;;5074330;28;20033;-87
2021/11/25 07:08:47;;;;;;;0.10;0.10;;;;;;;;;;5074542;28;20020;-86
2021/11/25 07:11:12;;;;;;;0.10;0.10;;;;;;;;;;5074271;28;20078;-86
2021/11/25 07:13:37;;;;;;;0.10;0.10;;;;;;;;;;5074139;28;20033;-86
2021/11/25 07:16:03;;;;;;;0.50;0.50;;;;;;;;;;5074156;28;20012;-85
2021/11/25 07:18:29;;;;;;;0.10;0.10;;;;;;;;;;5074059;28;20024;-85
2021/11/25 07:20:54;;;;;;;0.20;0.20;;;;;;;;;;5074221;28;20086;-85
2021/11/25 07:23:19;;;;;;;0.10;0.10;;;;;;;;;;5072657;28;20111;-84
2021/11/25 07:25:45;;;;;;;0.10;0.10;;;;;;;;;;5074094;28;20087;-86
2021/11/25 07:28:10;;;;;;;0.10;0.10;;;;;;;;;;5073892;28;20063;-86
2021/11/25 07:30:35;;;;;;;0.10;0.10;;;;;;;;;;5068768;28;20013;-85
2021/11/25 07:33:01;;;;;;;0.10;0.10;;;;;;;;;;5073639;28;20390;-84
2021/11/25 07:35:26;;;;;;;0.10;0.10;;;;;;;;;;5073832;28;20051;-84
2021/11/25 07:37:53;;;;;;;0.10;0.10;;;;;;;;;;5073103;28;20013;-85
2021/11/25 07:40:19;;;;;;;0.10;0.10;;;;;;;;;;5073915;28;20199;-85
2021/11/25 07:42:45;;;;;;;0.15;0.15;;;;;;;;;;5073752;28;20071;-85
2021/11/25 07:45:10;;;;;;;0.20;0.20;;;;;;;;;;5073522;28;20062;-85
2021/11/25 07:47:37;;;;;;;0.10;0.10;;;;;;;;;;5072497;28;20154;-84
2021/11/25 07:50:09;;;;;;;0.10;0.10;;;;;;;;;;5072769;28;20081;-83
2021/11/25 07:52:35;;;;;;;0.85;0.85;;;;;;;;;;5073056;28;20465;-84
2021/11/25 07:55:03;;;;;;;0.10;0.10;;;;;;;;;;5073186;28;20058;-83
2021/11/25 07:57:28;;;;;;;0.10;0.10;;;;;;;;;;5073394;28;20174;-83
2021/11/25 07:59:54;;;;;;;0.22;0.22;;;;;;;;;;5073299;28;20442;-84
2021/11/25 08:02:20;;;;;;;0.10;0.10;;;;;;;;;;5073222;28;20037;-84
2021/11/25 08:04:46;;;;;;;0.50;0.50;;;;;;;;;;5073304;28;20028;-84
2021/11/25 08:07:11;;;;;;;0.10;0.10;;;;;;;;;;5072892;28;20043;-84
2021/11/25 08:09:37;;;;;;;0.20;0.20;;;;;;;;;;5073354;28;20039;-84
2021/11/25 08:12:02;;;;;;;0.10;0.10;;;;;;;;;;5072867;28;20040;-85
2021/11/25 08:14:27;;;;;;;0.10;0.10;;;;;;;;;;5072803;28;20024;-84
2021/11/25 08:16:58;;;;;;;0.10;0.10;;;;;;;;;;5070893;28;20032;-86
2021/11/25 08:19:23;;;;;;;0.20;0.20;;;;;;;;;;5073186;28;20350;-84
2021/11/25 08:21:48;;;;;;;0.10;0.10;;;;;;;;;;5073277;28;20020;-86
2021/11/25 08:24:13;;;;;;;0.20;0.20;;;;;;;;;;5073353;28;20111;-84
2021/11/25 08:26:39;;;;;;;0.40;0.40;;;;;;;;;;5072879;28;20060;-85
2021/11/25 08:29:04;;;;;;;0.10;0.10;;;;;;;;;;5072480;28;20051;-84
2021/11/25 08:31:29;;;;;;;0.10;0.10;;;;;;;;;;5072761;28;20596;-85
2021/11/25 08:33:55;;;;;;;0.10;0.10;;;;;;;;;;5072381;28;20419;-86
2021/11/25 08:36:20;;;;;;;0.10;0.10;;;;;;;;;;5071419;28;20062;-86
2021/11/25 08:38:45;;;;;;;0.25;0.25;;;;;;;;;;5073208;28;20071;-87
2021/11/25 08:41:11;;;;;;;0.20;0.20;;;;;;;;;;5072855;28;20147;-87
2021/11/25 08:43:36;;;;;;;0.55;0.55;;;;;;;;;;5072471;28;20058;-86
2021/11/25 08:46:01;;;;;;;0.10;0.10;;;;;;;;;;5071663;28;20029;-87
2021/11/25 08:48:27;;;;;;;0.10;0.10;;;;;;;;;;5072929;28;20392;-85
2021/11/25 08:50:52;;;;;;;0.25;0.25;;;;;;;;;;5072625;28;20441;-87
2021/11/25 08:53:19;;;;;;;0.73;0.73;;;;;;;;;;5072286;28;20033;-86
2021/11/25 08:55:47;;;;;;;0.20;0.20;;;;;;;;;;5072378;28;20056;-86
2021/11/25 08:58:12;;;;;;;0.10;0.10;;;;;;;;;;5071142;28;20155;-88
2021/11/25 09:00:37;;;;;;;0.20;0.17;;;;;;;;;;5074282;28;20484;-86
2021/11/25 09:03:03;;;;;;;0.10;0.10;;;;;;;;;;5076267;28;20115;-86
2021/11/25 09:05:30;;;;;;;0.10;0.10;;;;;;;;;;5076831;28;20044;-86
2021/11/25 09:07:55;;;;;;;0.30;0.30;;;;;;;;;;5076638;28;20044;-87
2021/11/25 09:10:21;;;;;;;0.10;0.10;;;;;;;;;;5068299;28;20036;-86
2021/11/25 09:12:46;;;;;;;0.10;0.10;;;;;;;;;;5076350;28;20021;-85
2021/11/25 09:15:12;;;;;;;0.00;0.00;;;;;;;;;;5074398;28;20047;-83
2021/11/25 09:17:37;;;;;;;0.08;0.08;;;;;;;;;;5076073;28;20051;-84
2021/11/25 09:20:06;;;;;;;0.05;0.05;;;;;;;;;;5076377;28;20023;-85
2021/11/25 09:22:32;;;;;;;0.08;0.08;;;;;;;;;;5075216;28;20028;-84
2021/11/25 09:24:57;;;;;;;0.10;0.10;;;;;;;;;;5076156;28;20388;-83
2021/11/25 09:27:23;;;;;;;0.00;0.00;;;;;;;;;;5070636;28;20103;-83
2021/11/25 09:29:48;;;;;;;0.10;0.10;;;;;;;;;;5075669;28;20483;-83
2021/11/25 09:32:13;;;;;;;0.40;0.40;;;;;;;;;;5074179;28;20035;-83
2021/11/25 09:34:40;;;;;;;0.00;0.00;;;;;;;;;;5074074;28;20506;-84
2021/11/25 09:37:05;;;;;;;0.00;0.00;;;;;;;;;;5075059;28;20060;-84
2021/11/25 09:39:30;;;;;;;0.00;0.00;;;;;;;;;;5075599;28;20089;-83
2021/11/25 09:41:56;;;;;;;0.28;0.28;;;;;;;;;;5075994;28;20479;-84
2021/11/25 09:44:22;;;;;;;0.10;0.10;;;;;;;;;;5075518;28;20020;-84
2021/11/25 09:46:51;;;;;;;15.38;0.90;;;;;;;;;;5075643;28;20469;-83
2021/11/25 09:49:17;;;;;;;0.00;0.00;;;;;;;;;;5075982;28;20070;-84
2021/11/25 09:51:42;;;;;;;0.10;0.10;;;;;;;;;;5075851;28;20033;-83
2021/11/25 09:54:08;;;;;;;0.10;0.10;;;;;;;;;;5075654;28;20147;-83
2021/11/25 09:56:34;;;;;;;0.20;0.20;;;;;;;;;;5075360;28;20020;-82
2021/11/25 09:58:59;;;;;;;0.10;0.10;;;;;;;;;;5075378;28;20046;-83
2021/11/25 10:01:25;;;;;;;0.30;0.30;;;;;;;;;;5075741;28;20556;-82
2021/11/25 10:03:52;;;;;;;0.13;0.10;;;;;;;;;;5075137;28;20020;-83
2021/11/25 10:06:18;;;;;;;0.10;0.10;;;;;;;;;;5075539;28;20025;-82
2021/11/25 10:08:44;;;;;;;0.10;0.10;;;;;;;;;;5075267;28;20056;-82
2021/11/25 10:11:11;;;;;;;0.10;0.10;;;;;;;;;;5075502;28;20024;-82
2021/11/25 10:13:55;;;;;;;0.57;0.52;;;;;;;;;;5074286;28;20570;-82
2021/11/25 10:16:22;;;;;;;0.10;0.10;;;;;;;;;;5075508;28;20040;-82
2021/11/25 10:18:48;;;;;;;0.10;0.10;;;;;;;;;;5075291;28;20052;-83
2021/11/25 10:21:13;;;;;;;0.10;0.10;;;;;;;;;;5075134;28;20532;-83
2021/11/25 10:23:39;;;;;;;0.10;0.10;;;;;;;;;;5074968;28;20017;-82
2021/11/25 10:26:10;;;;;;;0.10;0.10;;;;;;;;;;5075335;28;20033;-83
2021/11/25 10:28:41;;;;;;;0.20;0.20;;;;;;;;;;5074897;28;20032;-84
2021/11/25 10:31:29;;;;;;;0.10;0.10;;;;;;;;;;5075127;28;20028;-84
2021/11/25 10:36:39;;;;;;;0.10;0.10;;;;;;;;;;5074873;28;20036;-84
2021/11/25 10:39:13;;;;;;;1.80;1.40;;;;;;;;;;5074921;28;20033;-84
2021/11/25 10:41:40;;;;;;;0.10;0.10;;;;;;;;;;5074503;28;20514;-83
2021/11/25 10:44:08;;;;;;;0.15;0.15;;;;;;;;;;5074553;28;20126;-83
2021/11/25 10:46:38;;;;;;;3.90;0.73;;;;;;;;;;5074760;28;20066;-84
2021/11/25 10:49:03;;;;;;;0.10;0.10;;;;;;;;;;5073324;28;20024;-83
2021/11/25 10:51:30;;;;;;;0.10;0.10;;;;;;;;;;5073615;28;20488;-83
2021/11/25 10:54:18;;;;;;;0.63;0.63;;;;;;;;;;5074207;28;20086;-84
2021/11/25 10:56:48;;;;;;;0.10;0.10;;;;;;;;;;5074626;28;20020;-84
2021/11/25 10:59:15;;;;;;;0.10;0.10;;;;;;;;;;5061643;28;20040;-84
2021/11/25 11:01:45;;;;;;;0.10;0.10;;;;;;;;;;5073895;28;20051;-84
2021/11/25 11:04:11;;;;;;;0.10;0.10;;;;;;;;;;5074065;28;20016;-84
2021/11/25 11:06:38;;;;;;;0.10;0.10;;;;;;;;;;5073586;28;20028;-84
2021/11/25 11:09:05;;;;;;;0.10;0.10;;;;;;;;;;5073780;28;20074;-84
2021/11/25 11:11:32;;;;;;;0.38;0.38;;;;;;;;;;5074059;28;20093;-83
2021/11/25 11:17:15;;;;;;;0.10;0.10;;;;;;;;;;5061388;28;20139;-84
2021/11/25 11:19:22;;;;;;;0.10;0.10;;;;;;;;;;5073094;28;20125;-84
2021/11/25 11:21:49;;;;;;;0.10;0.10;;;;;;;;;;5071368;28;20055;-83
2021/11/25 11:24:35;;;;;;;0.10;0.10;;;;;;;;;;5072673;28;20107;-84
2021/11/25 11:27:09;;;;;;;3.83;0.93;;;;;;;;;;5072958;28;20016;-83
2021/11/25 11:29:36;;;;;;;0.08;0.08;;;;;;;;;;5063127;28;20277;-84
2021/11/25 11:32:04;;;;;;;0.10;0.10;;;;;;;;;;5073303;28;20017;-85
2021/11/25 11:34:30;;;;;;;0.32;0.32;;;;;;;;;;5073160;28;20113;-84
2021/11/25 11:36:56;;;;;;;0.10;0.10;;;;;;;;;;5072893;28;20465;-83
2021/11/25 11:39:22;;;;;;;2.45;1.85;;;;;;;;;;5071826;28;20021;-84
2021/11/25 11:41:49;;;;;;;0.10;0.10;;;;;;;;;;5073181;28;20029;-85
2021/11/25 11:44:19;;;;;;;0.10;0.10;;;;;;;;;;5072519;28;20051;-84
2021/11/25 11:46:45;;;;;;;0.25;0.25;;;;;;;;;;5072699;28;20024;-83
2021/11/25 11:49:11;;;;;;;0.10;0.10;;;;;;;;;;5071916;28;20040;-83
2021/11/25 11:51:37;;;;;;;0.10;0.10;;;;;;;;;;5072889;28;20056;-84
2021/11/25 11:54:03;;;;;;;0.10;0.10;;;;;;;;;;5072388;28;20076;-84
2021/11/25 11:56:39;;;;;;;0.20;0.20;;;;;;;;;;5072911;28;20032;-84
2021/11/25 11:59:05;;;;;;;0.10;0.10;;;;;;;;;;5072935;28;20044;-84
2021/11/25 12:01:31;;;;;;;0.73;0.73;;;;;;;;;;5072824;28;20461;-84
2021/11/25 12:03:58;;;;;;;0.10;0.10;;;;;;;;;;5070857;28;20021;-84
2021/11/25 12:06:41;;;;;;;21.63;1.13;;;;;;;;;;5071855;28;20380;-83
2021/11/25 12:09:16;;;;;;;0.30;0.30;;;;;;;;;;5072258;28;20059;-84
2021/11/25 12:11:46;;;;;;;0.10;0.10;;;;;;;;;;5072854;28;20538;-84
2021/11/25 12:14:20;;;;;;;0.10;0.10;;;;;;;;;;5066898;28;20045;-84
2021/11/25 12:16:47;;;;;;;0.10;0.10;;;;;;;;;;5072563;28;20031;-83
2021/11/25 12:19:12;;;;;;;0.50;0.50;;;;;;;;;;5072398;28;20102;-84
2021/11/25 12:21:48;;;;;;;0.15;0.15;;;;;;;;;;5072538;28;20448;-83
2021/11/25 12:24:29;;;;;;;0.10;0.10;;;;;;;;;;5072513;28;20024;-84
2021/11/25 12:27:08;;;;;;;0.10;0.10;;;;;;;;;;5072120;28;20493;-84
2021/11/25 12:29:47;;;;;;;0.10;0.10;;;;;;;;;;5072082;28;20042;-84
2021/11/25 12:32:27;;;;;;;1.20;1.10;;;;;;;;;;5070936;28;20388;-83
2021/11/25 12:34:57;;;;;;;0.10;0.10;;;;;;;;;;5064758;28;20147;-83
2021/11/25 12:37:41;;;;;;;0.10;0.10;;;;;;;;;;5070762;28;20115;-83
2021/11/25 12:40:07;;;;;;;0.10;0.10;;;;;;;;;;5069970;28;20039;-83
2021/11/25 12:42:32;;;;;;;0.10;0.10;;;;;;;;;;5070828;28;20036;-84
2021/11/25 12:44:57;;;;;;;0.55;0.55;;;;;;;;;;5069790;28;20586;-84
2021/11/25 12:47:23;;;;;;;0.10;0.10;;;;;;;;;;5070615;28;20028;-84
2021/11/25 12:49:48;;;;;;;0.10;0.10;;;;;;;;;;5070313;28;20028;-83
2021/11/25 12:52:26;;;;;;;0.73;0.73;;;;;;;;;;5070861;28;20028;-84
2021/11/25 12:55:09;;;;;;;0.10;0.10;;;;;;;;;;5063232;28;20057;-84
2021/11/25 12:58:08;;;;;;;0.10;0.10;;;;;;;;;;5058674;28;20561;-84
2021/11/25 13:00:35;;;;;;;0.10;0.10;;;;;;;;;;5039389;28;20044;-84
2021/11/25 13:03:05;;;;;;;0.10;0.10;;;;;;;;;;5065776;28;20508;-84
2021/11/25 13:05:30;;;;;;;0.50;0.50;;;;;;;;;;5070865;28;20036;-82
2021/11/25 13:07:57;;;;;;;0.10;0.10;;;;;;;;;;5070077;28;20044;-84
2021/11/25 13:10:31;;;;;;;0.10;0.10;;;;;;;;;;5070279;28;20083;-85
2021/11/25 13:13:13;;;;;;;0.20;0.20;;;;;;;;;;5070256;28;20469;-83
2021/11/25 13:15:39;;;;;;;0.10;0.10;;;;;;;;;;5064776;28;20127;-83
2021/11/25 13:18:05;;;;;;;0.30;0.30;;;;;;;;;;5069551;28;20511;-84
2021/11/25 13:20:46;;;;;;;0.13;0.13;;;;;;;;;;5069055;28;20032;-84
2021/11/25 13:23:13;;;;;;;0.00;0.00;;;;;;;;;;5063471;28;20047;-83
2021/11/25 13:26:05;;;;;;;0.15;0.15;;;;;;;;;;5069934;28;20033;-83
2021/11/25 13:28:32;;;;;;;0.55;0.55;;;;;;;;;;5064432;28;20040;-84
2021/11/25 13:31:13;;;;;;;0.10;0.10;;;;;;;;;;5061388;28;20037;-84
2021/11/25 13:33:57;;;;;;;0.10;0.10;;;;;;;;;;5070694;28;20032;-84
2021/11/25 13:36:24;;;;;;;0.10;0.10;;;;;;;;;;5060182;28;20040;-85
2021/11/25 13:38:50;;;;;;;0.68;0.68;;;;;;;;;;5069639;28;20432;-84
2021/11/25 13:41:17;;;;;;;0.10;0.10;;;;;;;;;;5070031;28;20040;-83
2021/11/25 13:43:53;;;;;;;0.10;0.10;;;;;;;;;;5070116;28;20023;-84
2021/11/25 13:46:19;;;;;;;18.75;1.10;;;;;;;;;;5069592;28;20063;-84
2021/11/25 13:48:45;;;;;;;0.25;0.25;;;;;;;;;;5071523;28;20052;-85
2021/11/25 13:51:23;;;;;;;0.10;0.10;;;;;;;;;;5073983;28;20024;-84
2021/11/25 13:53:49;;;;;;;0.10;0.10;;;;;;;;;;5073158;28;20035;-84
2021/11/25 13:56:14;;;;;;;0.10;0.10;;;;;;;;;;5074014;28;20033;-84
2021/11/25 13:58:40;;;;;;;0.00;0.00;;;;;;;;;;5073499;28;20078;-84
2021/11/25 14:01:11;;;;;;;0.10;0.10;;;;;;;;;;5073738;28;20424;-84
2021/11/25 14:03:37;;;;;;;0.10;0.10;;;;;;;;;;5073234;28;20067;-84
2021/11/25 14:06:04;;;;;;;0.10;0.10;;;;;;;;;;5073112;28;20067;-84
2021/11/25 14:08:31;;;;;;;0.25;0.25;;;;;;;;;;5073258;28;20025;-83
2021/11/25 14:11:08;;;;;;;0.10;0.10;;;;;;;;;;5073294;28;20496;-83
2021/11/25 14:13:33;;;;;;;0.70;0.70;;;;;;;;;;5072178;28;20025;-83
2021/11/25 14:16:11;;;;;;;2.83;0.68;;;;;;;;;;5073541;28;20041;-84
2021/11/25 14:18:36;;;;;;;0.28;0.28;;;;;;;;;;5072320;28;20031;-84
2021/11/25 14:21:01;;;;;;;0.32;0.32;;;;;;;;;;5073444;28;20021;-84
2021/11/25 14:23:28;;;;;;;0.22;0.22;;;;;;;;;;5073020;28;20028;-84
2021/11/25 14:26:00;;;;;;;0.40;0.40;;;;;;;;;;5073371;28;20044;-84
2021/11/25 14:31:19;;;;;;;0.15;0.15;;;;;;;;;;5072858;28;20420;-83
2021/11/25 14:33:44;;;;;;;0.10;0.10;;;;;;;;;;5072555;28;20033;-84
2021/11/25 14:36:21;;;;;;;0.00;0.00;;;;;;;;;;5072977;28;20085;-83
2021/11/25 14:38:47;;;;;;;0.10;0.10;;;;;;;;;;5072391;28;20045;-84
2021/11/25 14:41:13;;;;;;;0.10;0.10;;;;;;;;;;5072783;28;20024;-84
2021/11/25 14:43:38;;;;;;;0.10;0.10;;;;;;;;;;5072154;28;20012;-84
2021/11/25 14:46:13;;;;;;;0.35;0.32;;;;;;;;;;5072787;28;20016;-84
2021/11/25 14:48:40;;;;;;;0.10;0.10;;;;;;;;;;5072762;28;20027;-84
2021/11/25 14:51:06;;;;;;;0.10;0.10;;;;;;;;;;5072245;28;20051;-84
2021/11/25 14:53:42;;;;;;;0.30;0.30;;;;;;;;;;5072644;28;20051;-84
2021/11/25 14:56:10;;;;;;;0.10;0.10;;;;;;;;;;5072363;28;20051;-85